Cargo Plus Coastal Challenge

filter by:

Full Monty 33km Run

Race Number Name Team Time Place Gender Gender Place Division Division Place
53 Alex Mcfarlane 3:30:41 1 Male 1 Male 30-39 1
83 Andrew Henwood 3:38:14 2 Male 2 Male 40-49 1
13 Billy Bowman 3:39:12 3 Male 3 Male 20-29 1
58 Daniel Shaw 3:43:25 4 Male 4 Male 30-39 2
106 James Greenslade 3:51:30 5 Male 5 Male 30-39 3
82 Jamie Stevens 3:53:15 6 Male 6 Male 30-39 4
108 Matthew Heads 3:55:16 7 Male 7 Male 20-29 2
96 Adam Boyd 3:55:40 8 Male 8 Male 30-39 5
105 Mark Geor Need more Training 3:56:48 9 Male 9 Male 30-39 6
51 Jasper Roberts 3:59:42 10 Male 10 Male 20-29 3
6 Brad Barron 4:03:48 11 Male 11 Male 30-39 7
52 Glenn Mccord 4:06:28 12 Male 12 Male 30-39 8
38 Seamus Kelly 4:06:52 13 Male 13 Male Under 20 1
81 Paul Stables 4:08:37 14 Male 14 Male 50-59 1
91 Brian Woodward 4:09:53 15 Male 15 Male 30-39 9
63 Brent Nijssen 4:09:53 16 Male 16 Male 30-39 10
101 Manuel Dussault Gomez Need more Training 4:11:21 17 Male 17 Male 20-29 4
36 Matt Harkness 4:11:50 18 Male 18 Male 40-49 2
27 Scott Ellis 4:12:46 19 Male 19 Male 30-39 11
11 Nick Bone 4:13:03 20 Male 20 Male 20-29 5
71 Willy Roberts 4:13:38 21 Male 21 Male 50-59 2
16 Greg Camburn 4:15:19 22 Male 22 Male 40-49 3
33 Malcolm Graham 4:15:45 23 Male 23 Male 30-39 12
61 Adrianna Skurosz 4:19:32 24 Female 1 Female 30-39 1
44 Warren Lawrence 4:21:25 25 Male 24 Male 40-49 4
7 Stuart Bent 4:22:02 26 Male 25 Male 50-59 3
21 Mark Coster 4:22:11 27 Male 26 Male 50-59 4
47 Carl Logan 4:22:22 28 Male 27 Male 30-39 13
85 Lesley Turner Hall 4:22:38 29 Female 2 Female 40-49 1
92 Nick Allen 4:23:51 30 Male 28 Male 40-49 5
78 James Sheehan 4:24:32 31 Male 29 Male 30-39 14
75 Dave Saunders 4:24:48 32 Male 30 Male 30-39 15
24 Blair Dawson 4:25:25 33 Male 31 Male 30-39 16
2 Adam Palmer 4:26:39 34 Male 32 Male 20-29 6
112 Angus Kelly 4:26:53 35 Male 33 Male 30-39 17
48 Sarah Manders 4:26:55 36 Female 3 Female 30-39 2
28 Johan Engelbrecht 4:28:47 37 Male 34 Male 30-39 18
109 Norbert Idelon 4:28:54 38 Male 35 Male 50-59 5
45 Kevin Le Need more Training 4:29:43 39 Male 36 Male 30-39 19
94 Josef Andrews 4:32:57 40 Male 37 Male Under 20 2
55 Dan Mckessar 4:35:11 41 Male 38 Male 30-39 20
86 Aidan Vale 4:37:55 42 Male 39 Male 20-29 7
99 Joseph Crowe 4:38:58 43 Male 40 Male 30-39 21
93 Martin Andrews 4:39:31 44 Male 41 Male 50-59 6
17 Marc Camburn 4:39:37 45 Male 42 Male 40-49 6
70 Joshua Reynolds 4:39:43 46 Male 43 Male 30-39 22
111 Alan James 4:41:14 47 Male 44 Male 50-59 7
113 Craig Lawrence 4:41:25 48 Male 45 Male 30-39 23
31 Lance Furniss 4:42:15 49 Male 46 Male 30-39 24
76 Claire Scott 4:43:29 50 Female 4 Female 40-49 2
59 Joseph Milich 4:43:54 51 Male 47 Male 50-59 8
9 Sam Blackmore 4:47:01 52 Male 48 Male 30-39 25
37 Chris Hope 4:47:49 53 Male 49 Male 40-49 7
49 Brendon Manley 4:48:09 54 Male 50 Male 30-39 26
95 Alex Bauer 4:54:00 55 Male 51 Male 30-39 27
30 Joe Rixon 4:54:00 56 Male 52 Male 30-39 28
116 Scott Martin 4:54:13 57 Male 53 Male 40-49 8
43 Aaron Kraakman 4:54:36 58 Male 54 Male 30-39 29
80 Bronson SOUTHERN 4:56:35 59 Male 55 Male 20-29 8
90 John Wilson 4:58:26 60 Male 56 Male 50-59 9
103 Paul Gallagher 4:58:28 61 Male 57 Male 40-49 9
26 Murray Drinnan 5:00:19 62 Male 58 Male 50-59 10
97 Sophie Broome 5:00:29 63 Female 5 Female 20-29 1
107 James Harper 5:00:33 64 Male 59 Male 40-49 10
54 Matthew Mcgougan 5:01:39 65 Male 60 Male 30-39 30
88 Chloe Vincent 5:04:35 66 Female 6 Female 40-49 3
87 Mervyn Van Gompel 5:04:35 67 Male 61 Male 30-39 31
89 Nik Shipkov 5:05:16 68 Male 62 Male 40-49 11
110 David Jade 5:07:58 69 Male 63 Male 40-49 12
119 Neville Modlin 5:10:04 70 Male 64 Male 50-59 11
65 Drew Ward 5:10:56 71 Male 65 Male 30-39 32
50 Phil Matheson 5:11:34 72 Male 66 Male 50-59 12
10 Clinton Bold Kinetic Engineering 5:13:09 73 Male 67 Male 50-59 13
29 Chris Feao 5:14:26 74 Male 68 Male 30-39 33
3 Neil Kraakman 5:19:42 75 Male 69 Male 50-59 14
14 Dale Brown Cargo Plus Limited 5:20:11 76 Male 70 Male 40-49 13
8 Aaron Birley 5:25:07 77 Male 71 Male 40-49 14
118 Chantelle Meyer 5:27:14 78 Female 7 Female 40-49 4
19 Kenith Clark 5:27:14 79 Male 72 Male 50-59 15
5 Mark Balich 5:28:31 80 Male 73 Male 40-49 15
117 Ben Meyer 5:29:15 81 Male 74 Male 40-49 16
22 Philip Cunninghame 5:29:16 82 Male 75 Male 50-59 16
115 Al Macfarlan 5:30:42 83 Male 76 Male 50-59 17
46 Hugh Lee Pak'nSave Albany 5:31:51 84 Male 77 Male 50-59 18
1 Helen Amrein 5:32:54 85 Female 8 Female 30-39 3
25 Anni Docking 5:34:56 86 Female 9 Female 50-59 1
15 Zhuang Qu 5:40:08 87 Male 78 Male 30-39 34
42 Allysia Kraakman 5:41:04 88 Female 10 Female 30-39 4
98 Fergus Brown 5:41:24 89 Male 79 Male 40-49 17
120 Nick Owen 5:41:24 90 Male 80 Male 50-59 19
60 Erin Mitchell 5:46:10 91 Female 11 Female 40-49 5
114 Marti Leung 5:46:15 92 Female 12 Female 30-39 5
100 Pete Davis 5:46:15 93 Male 81 Male 50-59 20
104 Mike Geers 5:48:24 94 Male 82 Male 50-59 21
74 Andrew Ross 5:48:33 95 Male 83 Male 40-49 18
4 Mark Avis 5:48:33 96 Male 84 Male 40-49 19
68 David Pretorius 5:50:03 97 Male 85 Male 40-49 20
79 Rachel Smalley 5:50:03 98 Female 13 Female 40-49 6
12 Wayne Bowler 5:57:15 99 Male 86 Male 50-59 22
56 Tracey MCKINSTRY 6:01:06 100 Female 14 Female 30-39 6
40 John Kidd 6:01:44 101 Male 87 Male 40-49 21
64 Wui Thoo 6:02:18 102 Male 88 Male 40-49 22
62 Lisa Nicklin 6:05:30 103 Female 15 Female 40-49 7
18 Hughie Castle 6:23:36 104 Female 16 Female 40-49 8
102 Owen Frentz 6:29:31 105 Male 89 Male 40-49 23
84 Hugh Stewart 7:06:16 106 Male 90 Male 60+ 1